createdAt,value
2023-02-14T00:00:06.673Z,0.37
2023-02-14T00:02:11.327Z,-0.10
2023-02-14T00:04:14.288Z,0.06
2023-02-14T00:06:18.692Z,0.14
2023-02-14T00:08:21.504Z,0.45
2023-02-14T00:10:24.326Z,0.46
2023-02-14T00:12:27.055Z,0.47
2023-02-14T00:14:47.661Z,0.51
2023-02-14T00:16:50.641Z,0.46
2023-02-14T00:19:05.192Z,0.41
2023-02-14T00:21:07.936Z,-0.27
2023-02-14T00:23:12.076Z,0.41
2023-02-14T00:25:15.067Z,0.47
2023-02-14T00:27:18.075Z,0.42
2023-02-14T00:29:23.515Z,0.44
2023-02-14T00:31:26.767Z,0.09
2023-02-14T00:33:29.570Z,0.24
2023-02-14T00:35:32.316Z,0.51
2023-02-14T00:37:35.461Z,0.49
2023-02-14T00:39:39.712Z,0.50
2023-02-14T00:41:43.802Z,0.50
2023-02-14T00:43:47.851Z,0.38
2023-02-14T00:45:50.715Z,0.23
2023-02-14T00:47:53.521Z,0.47
2023-02-14T00:49:56.379Z,0.46
2023-02-14T00:52:01.608Z,0.47
2023-02-14T00:54:06.969Z,0.47
2023-02-14T00:56:11.057Z,0.46
2023-02-14T00:58:14.095Z,-0.12
2023-02-14T01:00:17.455Z,0.30
2023-02-14T01:02:20.239Z,0.30
2023-02-14T01:04:23.037Z,0.26
2023-02-14T01:06:25.826Z,0.24
2023-02-14T01:08:28.825Z,0.23
2023-02-14T01:10:32.330Z,0.23
2023-02-14T01:12:36.450Z,-0.21
2023-02-14T01:14:39.333Z,0.22
2023-02-14T01:16:42.166Z,0.21
2023-02-14T01:18:45.480Z,-0.51
2023-02-14T01:20:48.362Z,0.17
2023-02-14T01:22:51.498Z,0.18
2023-02-14T01:24:56.786Z,0.16
2023-02-14T01:26:59.643Z,-0.04
2023-02-14T01:29:04.558Z,0.17
2023-02-14T01:31:09.700Z,0.16
2023-02-14T01:33:12.547Z,0.07
2023-02-14T01:35:15.446Z,0.19
2023-02-14T01:37:18.202Z,0.21
2023-02-14T01:39:20.946Z,0.19
2023-02-14T01:41:24.983Z,0.15
2023-02-14T01:43:29.480Z,0.10
2023-02-14T01:45:33.879Z,-0.16
2023-02-14T01:47:41.753Z,-0.12
2023-02-14T01:49:49.917Z,-0.60
2023-02-14T01:51:57.263Z,-0.08
2023-02-14T01:54:01.259Z,-0.14
2023-02-14T01:56:10.352Z,-0.22
2023-02-14T01:58:17.315Z,-0.22
2023-02-14T02:00:38.727Z,-0.36
2023-02-14T02:02:44.227Z,-0.22
2023-02-14T02:04:48.274Z,-0.40
2023-02-14T02:06:56.084Z,-0.40
2023-02-14T02:09:10.060Z,-0.34
2023-02-14T02:11:13.554Z,-0.51
2023-02-14T02:13:19.867Z,-0.38
2023-02-14T02:15:28.059Z,-0.39
2023-02-14T02:17:41.144Z,-0.38
2023-02-14T02:20:15.742Z,-0.43
2023-02-14T02:22:51.256Z,-0.49
2023-02-14T02:25:01.474Z,-0.47
2023-02-14T02:27:29.728Z,-0.50
2023-02-14T02:30:05.337Z,-0.59
2023-02-14T02:32:38.627Z,-0.61
2023-02-14T02:35:11.212Z,-0.74
2023-02-14T02:37:31.691Z,-0.86
2023-02-14T02:39:47.477Z,-1.92
2023-02-14T02:42:02.634Z,-0.78
2023-02-14T02:44:16.377Z,-0.81
2023-02-14T02:46:43.895Z,-0.91
2023-02-14T02:48:54.145Z,-1.32
2023-02-14T02:51:19.780Z,-0.88
2023-02-14T02:53:29.398Z,-0.93
2023-02-14T02:55:53.951Z,-0.89
2023-02-14T02:57:57.879Z,-1.08
2023-02-14T03:00:04.409Z,-0.86
2023-02-14T03:02:13.652Z,-0.85
2023-02-14T03:04:36.974Z,-0.84
2023-02-14T03:06:41.160Z,-0.95
2023-02-14T03:08:43.974Z,-0.85
2023-02-14T03:10:46.913Z,-1.12
2023-02-14T03:13:26.497Z,-0.90
2023-02-14T03:15:42.005Z,-0.94
2023-02-14T03:17:58.781Z,-0.98
2023-02-14T03:20:14.303Z,-1.05
2023-02-14T03:22:27.435Z,-1.92
2023-02-14T03:24:40.979Z,-1.05
2023-02-14T03:26:49.398Z,-1.08
2023-02-14T03:29:01.194Z,-0.98
2023-02-14T03:31:09.685Z,-0.94
2023-02-14T03:33:19.845Z,-1.09
2023-02-14T03:35:26.714Z,-0.97
2023-02-14T03:37:37.066Z,-1.02
2023-02-14T03:39:44.892Z,-1.01
2023-02-14T03:41:52.864Z,-0.95
2023-02-14T03:44:01.007Z,-1.00
2023-02-14T03:46:09.600Z,-1.11
2023-02-14T03:48:15.386Z,-0.87
2023-02-14T03:50:20.691Z,-0.84
2023-02-14T03:52:26.063Z,-0.92
2023-02-14T03:54:32.813Z,-0.97
2023-02-14T03:56:38.835Z,-1.06
2023-02-14T03:58:46.055Z,-1.02
2023-02-14T04:00:54.045Z,-1.16
2023-02-14T04:03:03.143Z,-1.18
2023-02-14T04:05:13.409Z,-1.76
2023-02-14T04:07:18.511Z,-1.13
2023-02-14T04:09:21.373Z,-1.15
2023-02-14T04:11:25.628Z,-1.00
2023-02-14T04:13:28.758Z,-1.00
2023-02-14T04:15:31.688Z,-1.47
2023-02-14T04:17:51.834Z,-1.00
2023-02-14T04:19:54.716Z,-1.04
2023-02-14T04:21:57.556Z,-1.20
2023-02-14T04:24:00.356Z,-1.03
2023-02-14T04:26:03.696Z,-1.04
2023-02-14T04:28:07.921Z,-1.03
2023-02-14T04:30:12.580Z,-1.67
2023-02-14T04:32:17.611Z,-1.05
2023-02-14T04:34:20.471Z,-1.03
2023-02-14T04:36:23.262Z,-1.56
2023-02-14T04:38:26.262Z,-0.97
2023-02-14T04:40:29.077Z,-1.02
2023-02-14T04:42:31.896Z,-1.01
2023-02-14T04:44:38.165Z,-1.25
2023-02-14T04:46:41.030Z,-1.06
2023-02-14T04:48:43.824Z,-1.13
2023-02-14T04:50:46.598Z,-1.46
2023-02-14T04:52:49.368Z,-1.33
2023-02-14T04:54:52.160Z,-1.16
2023-02-14T04:56:55.307Z,-1.14
2023-02-14T04:58:58.161Z,-1.10
2023-02-14T05:01:02.828Z,-1.04
2023-02-14T05:03:05.795Z,-1.03
2023-02-14T05:05:09.105Z,-1.02
2023-02-14T05:07:11.875Z,-1.03
2023-02-14T05:09:14.701Z,-1.04
2023-02-14T05:11:17.507Z,-1.06
2023-02-14T05:13:20.305Z,-1.65
2023-02-14T05:15:23.342Z,-1.05
2023-02-14T05:17:27.555Z,-0.99
2023-02-14T05:19:30.320Z,-0.93
2023-02-14T05:21:33.377Z,-0.91
2023-02-14T05:23:36.066Z,-0.93
2023-02-14T05:25:38.770Z,-1.07
2023-02-14T05:27:41.564Z,-0.88
2023-02-14T05:29:44.291Z,-0.90
2023-02-14T05:31:47.031Z,-0.89
2023-02-14T05:33:51.118Z,-0.90
2023-02-14T05:35:54.193Z,-0.90
2023-02-14T05:37:56.955Z,-0.93
2023-02-14T05:39:59.700Z,-0.91
2023-02-14T05:42:03.166Z,-0.84
2023-02-14T05:44:05.874Z,-0.83
2023-02-14T05:46:08.741Z,-0.77
2023-02-14T05:48:13.328Z,-0.80
2023-02-14T05:50:17.765Z,-0.75
2023-02-14T05:52:20.444Z,-0.72
2023-02-14T05:54:23.216Z,-0.70
2023-02-14T05:56:25.999Z,-0.74
2023-02-14T05:58:28.974Z,-0.75
2023-02-14T06:00:31.757Z,-1.15
2023-02-14T06:02:34.535Z,-0.79
2023-02-14T06:04:37.408Z,-0.85
2023-02-14T06:06:41.568Z,-0.96
2023-02-14T06:08:44.340Z,-1.01
2023-02-14T06:10:47.339Z,-1.02
2023-02-14T06:12:51.548Z,-1.06
2023-02-14T06:14:54.369Z,-1.03
2023-02-14T06:16:57.196Z,-1.60
2023-02-14T06:19:00.002Z,-1.11
2023-02-14T06:21:02.983Z,-1.11
2023-02-14T06:23:07.131Z,-1.23
2023-02-14T06:25:09.914Z,-1.31
2023-02-14T06:27:12.624Z,-1.21
2023-02-14T06:29:17.584Z,-1.28
2023-02-14T06:31:20.406Z,-1.30
2023-02-14T06:33:23.213Z,-1.30
2023-02-14T06:35:25.969Z,-1.31
2023-02-14T06:37:28.657Z,-1.30
2023-02-14T06:39:32.703Z,-1.33
2023-02-14T06:41:35.413Z,-1.34
2023-02-14T06:43:38.911Z,-1.32
2023-02-14T06:45:43.666Z,-1.44
2023-02-14T06:47:46.549Z,-2.00
2023-02-14T06:49:49.261Z,-1.73
2023-02-14T06:51:51.921Z,-2.10
2023-02-14T06:53:54.588Z,-1.56
2023-02-14T06:55:58.571Z,-1.48
2023-02-14T06:58:01.232Z,-1.42
2023-02-14T07:00:04.806Z,-1.34
2023-02-14T07:02:07.602Z,-1.37
2023-02-14T07:04:10.465Z,-1.49
2023-02-14T07:06:13.170Z,-1.37
2023-02-14T07:08:16.039Z,-1.36
2023-02-14T07:10:19.105Z,-1.59
2023-02-14T07:12:23.216Z,-1.12
2023-02-14T07:14:26.051Z,-1.03
2023-02-14T07:16:28.773Z,-0.87
2023-02-14T07:18:31.585Z,-0.74
2023-02-14T07:20:34.357Z,-0.64
2023-02-14T07:22:37.750Z,-0.66
2023-02-14T07:24:40.502Z,-0.40
2023-02-14T07:26:43.293Z,-0.29
2023-02-14T07:28:49.101Z,-0.74
2023-02-14T07:30:51.991Z,-0.12
2023-02-14T07:32:54.870Z,-0.06
2023-02-14T07:34:57.619Z,-0.01
2023-02-14T07:37:00.551Z,0.07
2023-02-14T07:39:03.329Z,0.15
2023-02-14T07:41:06.640Z,0.19
2023-02-14T07:43:09.455Z,0.23
2023-02-14T07:45:21.584Z,0.24
2023-02-14T07:47:25.670Z,0.35
2023-02-14T07:49:29.535Z,0.36
2023-02-14T07:51:32.321Z,0.40
2023-02-14T07:53:35.284Z,0.41
2023-02-14T07:55:38.041Z,0.43
2023-02-14T07:57:40.811Z,0.52
2023-02-14T07:59:43.534Z,0.63
2023-02-14T08:01:47.749Z,0.73
2023-02-14T08:03:51.327Z,0.83
2023-02-14T08:05:57.884Z,0.93
2023-02-14T08:08:00.617Z,1.03
2023-02-14T08:10:03.375Z,1.14
2023-02-14T08:12:24.112Z,1.17
2023-02-14T08:14:26.855Z,1.36
2023-02-14T08:16:29.632Z,1.45
2023-02-14T08:18:37.365Z,1.49
2023-02-14T08:20:40.154Z,1.15
2023-02-14T08:22:42.938Z,1.65
2023-02-14T08:24:45.657Z,1.69
2023-02-14T08:26:48.439Z,1.73
2023-02-14T08:28:51.299Z,1.72
2023-02-14T08:30:54.630Z,1.76
2023-02-14T08:32:57.410Z,1.69
2023-02-14T08:35:01.565Z,1.73
2023-02-14T08:37:04.528Z,1.78
2023-02-14T08:39:07.507Z,1.40
2023-02-14T08:41:10.300Z,1.93
2023-02-14T08:43:13.124Z,1.98
2023-02-14T08:45:15.988Z,1.48
2023-02-14T08:47:18.722Z,1.81
2023-02-14T08:49:21.468Z,1.85
2023-02-14T08:51:26.262Z,1.15
2023-02-14T08:53:29.009Z,2.34
2023-02-14T08:55:31.852Z,2.46
2023-02-14T08:57:34.585Z,2.55
2023-02-14T08:59:37.327Z,2.61
2023-02-14T09:01:40.069Z,2.70
2023-02-14T09:03:43.468Z,2.69
2023-02-14T09:05:46.253Z,2.90
2023-02-14T09:07:50.470Z,2.81
2023-02-14T09:09:53.265Z,3.08
2023-02-14T09:11:57.246Z,3.15
2023-02-14T09:14:00.041Z,3.21
2023-02-14T09:16:04.914Z,3.35
2023-02-14T09:18:07.729Z,3.47
2023-02-14T09:20:12.876Z,3.53
2023-02-14T09:22:15.686Z,3.61
2023-02-14T09:24:19.762Z,3.69
2023-02-14T09:26:22.543Z,3.83
2023-02-14T09:28:25.289Z,3.92
2023-02-14T09:30:28.169Z,4.09
2023-02-14T09:32:31.561Z,4.24
2023-02-14T09:34:35.954Z,4.29
2023-02-14T09:36:38.756Z,4.40
2023-02-14T09:38:41.551Z,4.65
2023-02-14T09:40:46.038Z,4.83
2023-02-14T09:43:04.012Z,5.06
2023-02-14T09:45:12.484Z,5.24
2023-02-14T09:47:23.263Z,5.39
2023-02-14T09:49:33.724Z,5.57
2023-02-14T09:51:38.806Z,5.68
2023-02-14T09:53:46.231Z,5.77
2023-02-14T09:55:55.810Z,5.87
2023-02-14T09:58:10.673Z,5.95
2023-02-14T10:00:23.939Z,6.08
2023-02-14T10:02:40.246Z,6.08
2023-02-14T10:04:56.030Z,6.19
2023-02-14T10:07:08.727Z,6.36
2023-02-14T10:09:23.469Z,6.46
2023-02-14T10:11:29.387Z,6.53
2023-02-14T10:13:39.114Z,6.63
2023-02-14T10:15:45.912Z,6.83
2023-02-14T10:17:54.941Z,6.87
2023-02-14T10:20:00.908Z,6.97
2023-02-14T10:22:09.115Z,7.15
2023-02-14T10:24:17.203Z,6.38
2023-02-14T10:26:25.740Z,6.91
2023-02-14T10:28:35.246Z,7.40
2023-02-14T10:30:40.293Z,6.92
2023-02-14T10:32:48.801Z,7.68
2023-02-14T10:34:52.727Z,7.92
2023-02-14T10:37:09.713Z,7.95
2023-02-14T10:39:27.993Z,8.00
2023-02-14T10:41:41.113Z,8.30
2023-02-14T10:43:54.486Z,8.41
2023-02-14T10:46:05.064Z,8.44
2023-02-14T10:48:19.031Z,8.50
2023-02-14T10:50:28.632Z,8.50
2023-02-14T10:52:40.501Z,8.65
2023-02-14T10:54:51.631Z,8.81
2023-02-14T10:56:59.688Z,8.96
2023-02-14T10:59:15.051Z,9.13
2023-02-14T11:01:19.444Z,9.25
2023-02-14T11:03:23.015Z,9.26
2023-02-14T11:05:29.597Z,9.33
2023-02-14T11:07:32.316Z,9.41
2023-02-14T11:09:35.046Z,9.65
2023-02-14T11:11:42.348Z,9.87
2023-02-14T11:13:46.149Z,9.82
2023-02-14T11:15:51.751Z,9.97
2023-02-14T11:18:17.822Z,10.01
2023-02-14T11:20:27.853Z,9.97
2023-02-14T11:22:31.748Z,10.15
2023-02-14T11:24:36.862Z,10.32
2023-02-14T11:26:39.958Z,10.41
2023-02-14T11:28:53.923Z,10.78
2023-02-14T11:30:58.304Z,10.88
2023-02-14T11:33:01.954Z,10.79
2023-02-14T11:35:07.508Z,11.04
2023-02-14T11:37:27.932Z,11.34
2023-02-14T11:39:32.738Z,11.46
2023-02-14T11:41:50.057Z,11.47
2023-02-14T11:43:53.175Z,11.08
2023-02-14T11:46:08.906Z,11.14
2023-02-14T11:48:36.528Z,11.52
2023-02-14T11:50:42.565Z,11.81
2023-02-14T11:52:52.118Z,11.66
2023-02-14T11:54:55.823Z,10.75
2023-02-14T11:57:05.169Z,11.98
2023-02-14T11:59:08.036Z,12.28
2023-02-14T12:01:21.208Z,12.57
2023-02-14T12:03:24.139Z,12.75
2023-02-14T12:05:31.406Z,12.59
2023-02-14T12:07:37.567Z,12.99
2023-02-14T12:09:42.651Z,13.12
2023-02-14T12:11:55.572Z,13.27
2023-02-14T12:13:59.532Z,13.54
2023-02-14T12:16:03.767Z,13.77
2023-02-14T12:18:48.212Z,13.88
2023-02-14T12:20:56.104Z,13.97
2023-02-14T12:23:05.522Z,13.86
2023-02-14T12:25:16.518Z,13.15
2023-02-14T12:27:23.228Z,12.53
2023-02-14T12:29:31.453Z,13.41
2023-02-14T12:31:34.312Z,13.40
2023-02-14T12:33:37.146Z,13.49
2023-02-14T12:35:53.005Z,14.35
2023-02-14T12:38:07.439Z,13.89
2023-02-14T12:40:18.194Z,13.76
2023-02-14T12:42:34.352Z,13.74
2023-02-14T12:44:47.433Z,13.76
2023-02-14T12:47:14.488Z,14.36
2023-02-14T12:49:52.440Z,14.20
2023-02-14T12:52:04.728Z,14.97
2023-02-14T12:54:24.233Z,15.47
2023-02-14T12:56:37.461Z,15.13
2023-02-14T12:58:51.086Z,15.31
2023-02-14T13:01:06.255Z,15.78
2023-02-14T13:03:30.421Z,16.18
2023-02-14T13:05:46.595Z,16.29
2023-02-14T13:08:09.344Z,15.04
2023-02-14T13:10:19.668Z,14.62
2023-02-14T13:12:36.117Z,15.17
2023-02-14T13:14:57.982Z,14.32
2023-02-14T13:17:08.789Z,15.56
2023-02-14T13:19:25.604Z,16.45
2023-02-14T13:21:32.402Z,16.91
2023-02-14T13:23:40.458Z,14.59
2023-02-14T13:25:49.891Z,15.04
2023-02-14T13:27:52.945Z,15.38
2023-02-14T13:30:01.100Z,15.51
2023-02-14T13:32:04.915Z,15.18
2023-02-14T13:34:14.553Z,14.65
2023-02-14T13:36:18.029Z,14.39
2023-02-14T13:38:21.597Z,15.76
2023-02-14T13:40:28.679Z,16.28
2023-02-14T13:42:54.111Z,16.58
2023-02-14T13:44:56.814Z,15.61
2023-02-14T13:46:59.581Z,15.31
2023-02-14T13:49:07.477Z,16.07
2023-02-14T13:51:11.237Z,17.00
2023-02-14T13:53:14.781Z,15.87
2023-02-14T13:55:20.259Z,16.21
2023-02-14T13:57:34.214Z,17.35
2023-02-14T13:59:37.088Z,16.92
2023-02-14T14:01:42.171Z,17.94
2023-02-14T14:03:57.593Z,17.16
2023-02-14T14:06:07.293Z,18.19
2023-02-14T14:08:53.098Z,17.98
2023-02-14T14:10:57.754Z,17.66
2023-02-14T14:13:01.858Z,18.25
2023-02-14T14:15:25.801Z,17.41
2023-02-14T14:17:28.704Z,17.18
2023-02-14T14:19:40.009Z,18.54
2023-02-14T14:21:44.740Z,18.53
2023-02-14T14:24:18.863Z,18.12
2023-02-14T14:26:46.847Z,18.33
2023-02-14T14:28:51.025Z,18.63
2023-02-14T14:30:53.991Z,19.03
2023-02-14T14:32:56.828Z,19.27
2023-02-14T14:35:01.178Z,19.27
2023-02-14T14:37:06.017Z,19.12
2023-02-14T14:39:11.279Z,19.46
2023-02-14T14:41:14.053Z,18.64
2023-02-14T14:43:23.587Z,19.75
2023-02-14T14:45:30.393Z,19.56
2023-02-14T14:47:43.533Z,19.57
2023-02-14T14:49:46.637Z,18.49
2023-02-14T14:51:50.060Z,19.16
2023-02-14T14:53:55.610Z,19.71
2023-02-14T14:55:59.297Z,19.77
2023-02-14T14:58:04.300Z,20.24
2023-02-14T15:00:27.275Z,20.40
2023-02-14T15:02:32.061Z,20.31
2023-02-14T15:04:36.746Z,20.31
2023-02-14T15:06:40.914Z,20.32
2023-02-14T15:08:44.393Z,19.22
2023-02-14T15:10:52.492Z,19.70
2023-02-14T15:13:15.752Z,20.03
2023-02-14T15:15:19.603Z,19.97
2023-02-14T15:17:26.091Z,20.29
2023-02-14T15:19:34.844Z,20.19
2023-02-14T15:21:38.048Z,19.50
2023-02-14T15:23:44.060Z,18.46
2023-02-14T15:25:49.123Z,17.40
2023-02-14T15:27:52.361Z,18.11
2023-02-14T15:29:57.954Z,18.90
2023-02-14T15:32:03.440Z,18.29
2023-02-14T15:34:07.638Z,19.02
2023-02-14T15:36:18.978Z,17.88
2023-02-14T15:38:23.921Z,17.97
2023-02-14T15:40:31.118Z,17.95
2023-02-14T15:42:35.978Z,17.67
2023-02-14T15:44:38.731Z,17.15
2023-02-14T15:46:41.862Z,17.27
2023-02-14T15:48:47.052Z,17.04
2023-02-14T15:50:52.591Z,16.18
2023-02-14T15:53:00.482Z,15.67
2023-02-14T15:55:03.260Z,15.04
2023-02-14T15:57:08.757Z,14.23
2023-02-14T15:59:18.721Z,13.87
2023-02-14T16:01:22.263Z,13.43
2023-02-14T16:03:27.964Z,13.49
2023-02-14T16:05:30.779Z,13.10
2023-02-14T16:07:33.972Z,13.22
2023-02-14T16:09:38.094Z,13.08
2023-02-14T16:11:40.809Z,12.05
2023-02-14T16:13:45.640Z,12.11
2023-02-14T16:15:58.932Z,12.16
2023-02-14T16:18:06.937Z,12.30
2023-02-14T16:20:21.978Z,12.31
2023-02-14T16:22:31.881Z,12.09
2023-02-14T16:24:35.956Z,11.33
2023-02-14T16:26:41.903Z,10.77
2023-02-14T16:28:44.714Z,10.69
2023-02-14T16:30:53.958Z,10.66
2023-02-14T16:32:57.199Z,10.41
2023-02-14T16:35:01.572Z,10.04
2023-02-14T16:37:07.850Z,9.91
2023-02-14T16:39:16.591Z,10.15
2023-02-14T16:41:21.321Z,9.89
2023-02-14T16:43:25.476Z,9.59
2023-02-14T16:45:28.198Z,9.49
2023-02-14T16:47:31.018Z,9.37
2023-02-14T16:49:33.756Z,9.24
2023-02-14T16:51:37.776Z,8.61
2023-02-14T16:53:42.267Z,9.03
2023-02-14T16:55:45.121Z,8.70
2023-02-14T16:57:51.746Z,8.37
2023-02-14T16:59:56.926Z,8.76
2023-02-14T17:01:59.951Z,8.68
2023-02-14T17:04:02.814Z,8.66
2023-02-14T17:06:06.364Z,8.39
2023-02-14T17:08:11.831Z,8.16
2023-02-14T17:10:19.070Z,8.16
2023-02-14T17:12:26.582Z,7.85
2023-02-14T17:14:34.243Z,7.67
2023-02-14T17:16:39.397Z,7.72
2023-02-14T17:18:43.459Z,7.64
2023-02-14T17:20:46.471Z,7.72
2023-02-14T17:22:49.306Z,7.72
2023-02-14T17:24:52.107Z,7.85
2023-02-14T17:26:54.880Z,7.89
2023-02-14T17:28:57.642Z,7.72
2023-02-14T17:31:01.050Z,7.53
2023-02-14T17:33:05.538Z,7.71
2023-02-14T17:35:08.989Z,7.75
2023-02-14T17:37:11.777Z,7.49
2023-02-14T17:39:14.788Z,7.63
2023-02-14T17:41:20.339Z,7.65
2023-02-14T17:43:24.065Z,7.49
2023-02-14T17:45:26.816Z,7.47
2023-02-14T17:47:30.289Z,7.33
2023-02-14T17:49:34.469Z,7.37
2023-02-14T17:51:37.301Z,6.48
2023-02-14T17:53:41.509Z,7.12
2023-02-14T17:55:44.270Z,7.04
2023-02-14T17:57:47.077Z,7.22
2023-02-14T17:59:51.153Z,7.17
2023-02-14T18:01:54.001Z,7.14
2023-02-14T18:03:56.790Z,7.07
2023-02-14T18:06:01.792Z,7.18
2023-02-14T18:08:04.736Z,6.92
2023-02-14T18:10:08.638Z,6.95
2023-02-14T18:12:14.911Z,6.96
2023-02-14T18:14:18.028Z,7.07
2023-02-14T18:16:21.048Z,6.97
2023-02-14T18:18:23.829Z,6.64
2023-02-14T18:20:26.552Z,6.61
2023-02-14T18:22:30.644Z,6.48
2023-02-14T18:24:33.522Z,6.59
2023-02-14T18:26:37.709Z,6.48
2023-02-14T18:28:40.863Z,5.93
2023-02-14T18:30:43.618Z,6.05
2023-02-14T18:32:46.390Z,6.37
2023-02-14T18:34:49.172Z,6.34
2023-02-14T18:36:51.899Z,6.44
2023-02-14T18:38:56.304Z,6.46
2023-02-14T18:41:03.227Z,6.47
2023-02-14T18:43:06.098Z,6.38
2023-02-14T18:45:10.212Z,6.28
2023-02-14T18:47:12.905Z,6.22
2023-02-14T18:49:15.702Z,6.20
2023-02-14T18:51:21.373Z,6.24
2023-02-14T18:53:24.784Z,6.22
2023-02-14T18:55:28.849Z,5.66
2023-02-14T18:57:31.597Z,6.20
2023-02-14T18:59:34.322Z,6.20
2023-02-14T19:01:40.652Z,6.19
2023-02-14T19:03:44.030Z,5.47
2023-02-14T19:05:46.746Z,4.84
2023-02-14T19:07:54.312Z,4.90
2023-02-14T19:09:57.022Z,5.30
2023-02-14T19:12:01.151Z,5.46
2023-02-14T19:14:09.818Z,5.58
2023-02-14T19:16:14.148Z,5.35
2023-02-14T19:18:16.954Z,5.69
2023-02-14T19:20:20.033Z,5.13
2023-02-14T19:22:23.387Z,5.54
2023-02-14T19:24:26.562Z,5.42
2023-02-14T19:26:32.742Z,5.56
2023-02-14T19:28:36.899Z,5.40
2023-02-14T19:30:39.875Z,5.23
2023-02-14T19:32:42.684Z,5.09
2023-02-14T19:34:45.513Z,5.09
2023-02-14T19:36:49.038Z,4.85
2023-02-14T19:38:54.170Z,4.52
2023-02-14T19:40:57.968Z,4.79
2023-02-14T19:43:00.818Z,4.26
2023-02-14T19:45:05.653Z,4.41
2023-02-14T19:47:25.321Z,4.78
2023-02-14T19:49:31.947Z,4.79
2023-02-14T19:51:36.943Z,4.96
2023-02-14T19:53:39.703Z,4.21
2023-02-14T19:55:42.598Z,4.89
2023-02-14T19:57:45.398Z,4.68
2023-02-14T19:59:48.253Z,4.57
2023-02-14T20:01:54.296Z,4.41
2023-02-14T20:03:57.528Z,4.56
2023-02-14T20:06:00.314Z,4.41
2023-02-14T20:08:03.076Z,4.48
2023-02-14T20:10:07.121Z,4.49
2023-02-14T20:12:10.937Z,4.47
2023-02-14T20:14:17.476Z,4.45
2023-02-14T20:16:20.257Z,4.56
2023-02-14T20:18:24.433Z,4.38
2023-02-14T20:20:27.243Z,4.31
2023-02-14T20:22:30.608Z,4.44
2023-02-14T20:24:33.542Z,4.48
2023-02-14T20:26:39.228Z,4.67
2023-02-14T20:28:43.234Z,4.73
2023-02-14T20:30:46.090Z,4.74
2023-02-14T20:32:48.915Z,4.74
2023-02-14T20:34:53.142Z,4.65
2023-02-14T20:36:56.238Z,4.62
2023-02-14T20:39:01.412Z,4.52
2023-02-14T20:41:05.255Z,4.10
2023-02-14T20:43:08.066Z,4.52
2023-02-14T20:45:10.838Z,4.50
2023-02-14T20:47:14.085Z,4.32
2023-02-14T20:49:17.210Z,4.36
2023-02-14T20:51:22.324Z,4.32
2023-02-14T20:53:25.858Z,4.30
2023-02-14T20:55:31.065Z,4.29
2023-02-14T20:57:33.857Z,4.26
2023-02-14T20:59:37.615Z,4.20
2023-02-14T21:01:40.777Z,3.65
2023-02-14T21:03:46.648Z,4.04
2023-02-14T21:05:49.512Z,3.73
2023-02-14T21:07:53.740Z,3.55
2023-02-14T21:09:56.669Z,2.94
2023-02-14T21:11:59.442Z,3.87
2023-02-14T21:14:03.003Z,3.76
2023-02-14T21:16:07.760Z,3.79
2023-02-14T21:18:10.563Z,3.05
2023-02-14T21:20:15.024Z,3.70
2023-02-14T21:22:18.089Z,3.62
2023-02-14T21:24:22.253Z,3.59
2023-02-14T21:26:25.545Z,3.53
2023-02-14T21:28:28.879Z,2.86
2023-02-14T21:30:32.768Z,3.57
2023-02-14T21:32:35.565Z,3.53
2023-02-14T21:34:38.373Z,3.57
2023-02-14T21:36:41.101Z,3.55
2023-02-14T21:38:44.204Z,3.60
2023-02-14T21:40:48.322Z,3.62
2023-02-14T21:42:51.128Z,3.61
2023-02-14T21:45:11.339Z,3.57
2023-02-14T21:47:14.190Z,3.35
2023-02-14T21:49:34.373Z,3.40
2023-02-14T21:51:37.139Z,3.18
2023-02-14T21:53:39.951Z,3.28
2023-02-14T21:55:45.508Z,3.23
2023-02-14T21:57:49.635Z,3.31
2023-02-14T21:59:52.394Z,3.32
2023-02-14T22:01:55.429Z,3.19
2023-02-14T22:03:59.816Z,3.05
2023-02-14T22:06:03.476Z,2.92
2023-02-14T22:08:06.946Z,3.22
2023-02-14T22:10:10.389Z,3.17
2023-02-14T22:12:13.157Z,3.23
2023-02-14T22:14:17.420Z,3.11
2023-02-14T22:16:22.014Z,2.42
2023-02-14T22:18:24.819Z,2.96
2023-02-14T22:20:27.584Z,2.93
2023-02-14T22:22:30.299Z,2.95
2023-02-14T22:24:33.125Z,2.95
2023-02-14T22:26:38.778Z,3.01
2023-02-14T22:28:43.365Z,3.05
2023-02-14T22:30:47.512Z,2.96
2023-02-14T22:32:50.350Z,2.97
2023-02-14T22:34:54.888Z,3.15
2023-02-14T22:36:57.671Z,3.14
2023-02-14T22:39:00.618Z,3.14
2023-02-14T22:41:07.633Z,3.12
2023-02-14T22:43:10.487Z,3.11
2023-02-14T22:45:13.240Z,3.03
2023-02-14T22:47:17.712Z,3.01
2023-02-14T22:49:20.444Z,2.41
2023-02-14T22:51:25.236Z,2.56
2023-02-14T22:53:28.071Z,2.80
2023-02-14T22:55:31.082Z,2.76
2023-02-14T22:57:33.867Z,2.36
2023-02-14T22:59:36.646Z,2.88
2023-02-14T23:01:39.539Z,2.79
2023-02-14T23:03:44.098Z,2.18
2023-02-14T23:05:46.968Z,2.26
2023-02-14T23:07:49.807Z,2.48
2023-02-14T23:09:52.568Z,2.45
2023-02-14T23:11:55.483Z,2.40
2023-02-14T23:14:15.959Z,2.47
2023-02-14T23:16:36.389Z,2.25
2023-02-14T23:18:56.443Z,2.36
2023-02-14T23:21:18.140Z,2.35
2023-02-14T23:23:20.880Z,1.74
2023-02-14T23:25:23.589Z,2.26
2023-02-14T23:27:31.745Z,2.42
2023-02-14T23:29:35.092Z,2.40
2023-02-14T23:31:37.899Z,2.48
2023-02-14T23:33:40.664Z,2.57
2023-02-14T23:35:43.371Z,2.44
2023-02-14T23:37:47.500Z,2.57
2023-02-14T23:39:50.738Z,2.48
2023-02-14T23:41:52.923Z,2.16
2023-02-14T23:43:55.613Z,2.37
2023-02-14T23:46:01.187Z,2.52
2023-02-14T23:48:05.080Z,2.42
2023-02-14T23:50:08.746Z,2.61
2023-02-14T23:52:13.278Z,2.60
2023-02-14T23:54:17.995Z,2.29
2023-02-14T23:56:20.747Z,2.56
2023-02-14T23:58:23.410Z,2.65
